sensor_id;sensor_type;location;lat;lon;timestamp;temperature;humidity
13982;DHT22;7065;50.880;5.502;2022-11-15T00:00:44;10.20;99.90
13982;DHT22;7065;50.880;5.502;2022-11-15T00:03:10;10.20;99.90
13982;DHT22;7065;50.880;5.502;2022-11-15T00:05:38;10.30;99.90
13982;DHT22;7065;50.880;5.502;2022-11-15T00:08:04;10.30;99.90
13982;DHT22;7065;50.880;5.502;2022-11-15T00:10:30;10.20;99.90
13982;DHT22;7065;50.880;5.502;2022-11-15T00:12:55;10.20;99.90
13982;DHT22;7065;50.880;5.502;2022-11-15T00:15:21;10.20;99.90
13982;DHT22;7065;50.880;5.502;2022-11-15T00:17:49;10.20;99.90
13982;DHT22;7065;50.880;5.502;2022-11-15T00:20:15;10.10;99.90
13982;DHT22;7065;50.880;5.502;2022-11-15T00:22:40;10.10;99.90
13982;DHT22;7065;50.880;5.502;2022-11-15T00:25:07;10.00;99.90
13982;DHT22;7065;50.880;5.502;2022-11-15T00:27:33;10.00;99.90
13982;DHT22;7065;50.880;5.502;2022-11-15T00:29:58;9.90;99.90
13982;DHT22;7065;50.880;5.502;2022-11-15T00:32:24;9.90;99.90
13982;DHT22;7065;50.880;5.502;2022-11-15T00:34:50;10.00;99.90
13982;DHT22;7065;50.880;5.502;2022-11-15T00:37:15;10.00;99.90
13982;DHT22;7065;50.880;5.502;2022-11-15T00:39:41;10.00;99.90
13982;DHT22;7065;50.880;5.502;2022-11-15T00:42:06;10.00;99.90
13982;DHT22;7065;50.880;5.502;2022-11-15T00:44:32;10.10;99.90
13982;DHT22;7065;50.880;5.502;2022-11-15T00:46:58;10.10;99.90
13982;DHT22;7065;50.880;5.502;2022-11-15T00:49:24;10.10;99.90
13982;DHT22;7065;50.880;5.502;2022-11-15T00:51:50;10.10;99.90
13982;DHT22;7065;50.880;5.502;2022-11-15T00:54:16;10.20;99.90
13982;DHT22;7065;50.880;5.502;2022-11-15T00:56:41;10.20;99.90
13982;DHT22;7065;50.880;5.502;2022-11-15T00:59:07;10.20;99.90
13982;DHT22;7065;50.880;5.502;2022-11-15T01:01:32;10.20;99.90
13982;DHT22;7065;50.880;5.502;2022-11-15T01:03:59;10.20;99.90
13982;DHT22;7065;50.880;5.502;2022-11-15T01:06:25;10.20;99.90
13982;DHT22;7065;50.880;5.502;2022-11-15T01:08:50;10.20;99.90
13982;DHT22;7065;50.880;5.502;2022-11-15T01:11:16;10.20;99.90
13982;DHT22;7065;50.880;5.502;2022-11-15T01:13:41;10.30;99.90
13982;DHT22;7065;50.880;5.502;2022-11-15T01:16:10;10.30;99.90
13982;DHT22;7065;50.880;5.502;2022-11-15T01:18:36;10.30;99.90
13982;DHT22;7065;50.880;5.502;2022-11-15T01:21:10;10.30;99.90
13982;DHT22;7065;50.880;5.502;2022-11-15T01:23:36;10.30;99.90
13982;DHT22;7065;50.880;5.502;2022-11-15T01:26:05;10.30;99.90
13982;DHT22;7065;50.880;5.502;2022-11-15T01:28:35;10.30;99.90
13982;DHT22;7065;50.880;5.502;2022-11-15T01:31:03;10.40;99.90
13982;DHT22;7065;50.880;5.502;2022-11-15T01:33:29;10.40;99.90
13982;DHT22;7065;50.880;5.502;2022-11-15T01:35:55;10.40;99.90
13982;DHT22;7065;50.880;5.502;2022-11-15T01:38:22;10.40;99.90
13982;DHT22;7065;50.880;5.502;2022-11-15T01:40:48;10.40;99.90
13982;DHT22;7065;50.880;5.502;2022-11-15T01:46:20;10.40;99.90
13982;DHT22;7065;50.880;5.502;2022-11-15T01:48:48;10.50;99.90
13982;DHT22;7065;50.880;5.502;2022-11-15T01:51:17;10.60;99.90
13982;DHT22;7065;50.880;5.502;2022-11-15T01:53:46;10.50;99.90
13982;DHT22;7065;50.880;5.502;2022-11-15T01:56:16;10.60;99.90
13982;DHT22;7065;50.880;5.502;2022-11-15T01:58:45;10.60;99.90
13982;DHT22;7065;50.880;5.502;2022-11-15T02:01:12;10.80;99.90
13982;DHT22;7065;50.880;5.502;2022-11-15T02:04:11;10.80;99.90
13982;DHT22;7065;50.880;5.502;2022-11-15T02:06:38;10.80;99.90
13982;DHT22;7065;50.880;5.502;2022-11-15T02:09:05;10.80;99.90
13982;DHT22;7065;50.880;5.502;2022-11-15T02:11:31;10.90;99.90
13982;DHT22;7065;50.880;5.502;2022-11-15T02:13:57;11.00;99.90
13982;DHT22;7065;50.880;5.502;2022-11-15T02:16:47;10.90;99.90
13982;DHT22;7065;50.880;5.502;2022-11-15T02:32:57;10.80;99.90
13982;DHT22;7065;50.880;5.502;2022-11-15T02:35:37;10.80;99.90
13982;DHT22;7065;50.880;5.502;2022-11-15T02:38:17;10.80;99.90
13982;DHT22;7065;50.880;5.502;2022-11-15T02:41:02;10.80;99.90
13982;DHT22;7065;50.880;5.502;2022-11-15T02:43:38;10.80;99.90
13982;DHT22;7065;50.880;5.502;2022-11-15T02:46:37;10.80;99.90
13982;DHT22;7065;50.880;5.502;2022-11-15T02:49:25;10.80;99.90
13982;DHT22;7065;50.880;5.502;2022-11-15T02:51:52;10.80;99.90
13982;DHT22;7065;50.880;5.502;2022-11-15T02:54:26;10.80;99.90
13982;DHT22;7065;50.880;5.502;2022-11-15T02:56:58;10.90;99.90
13982;DHT22;7065;50.880;5.502;2022-11-15T03:00:18;10.90;99.90
13982;DHT22;7065;50.880;5.502;2022-11-15T03:03:09;10.90;99.90
13982;DHT22;7065;50.880;5.502;2022-11-15T03:08:19;10.90;99.90
13982;DHT22;7065;50.880;5.502;2022-11-15T03:10:52;10.80;99.90
13982;DHT22;7065;50.880;5.502;2022-11-15T03:16:10;10.90;99.90
13982;DHT22;7065;50.880;5.502;2022-11-15T03:18:52;10.90;99.90
13982;DHT22;7065;50.880;5.502;2022-11-15T03:21:20;10.90;99.90
13982;DHT22;7065;50.880;5.502;2022-11-15T03:23:48;11.00;99.90
13982;DHT22;7065;50.880;5.502;2022-11-15T03:26:19;11.00;99.90
13982;DHT22;7065;50.880;5.502;2022-11-15T03:28:57;10.90;99.90
13982;DHT22;7065;50.880;5.502;2022-11-15T03:31:28;10.90;99.90
13982;DHT22;7065;50.880;5.502;2022-11-15T03:36:52;10.90;99.90
13982;DHT22;7065;50.880;5.502;2022-11-15T03:39:19;10.90;99.90
13982;DHT22;7065;50.880;5.502;2022-11-15T03:44:54;10.90;99.90
13982;DHT22;7065;50.880;5.502;2022-11-15T03:47:29;10.80;99.90
13982;DHT22;7065;50.880;5.502;2022-11-15T03:50:11;10.80;99.90
13982;DHT22;7065;50.880;5.502;2022-11-15T03:52:39;10.80;99.90
13982;DHT22;7065;50.880;5.502;2022-11-15T03:55:08;10.90;99.90
13982;DHT22;7065;50.880;5.502;2022-11-15T03:57:34;10.80;99.90
13982;DHT22;7065;50.880;5.502;2022-11-15T03:59:59;10.80;99.90
13982;DHT22;7065;50.880;5.502;2022-11-15T04:02:25;10.80;99.90
13982;DHT22;7065;50.880;5.502;2022-11-15T04:04:50;10.80;99.90
13982;DHT22;7065;50.880;5.502;2022-11-15T04:07:17;10.70;99.90
13982;DHT22;7065;50.880;5.502;2022-11-15T04:09:42;10.80;99.90
13982;DHT22;7065;50.880;5.502;2022-11-15T04:12:26;10.80;99.90
13982;DHT22;7065;50.880;5.502;2022-11-15T04:15:05;10.80;99.90
13982;DHT22;7065;50.880;5.502;2022-11-15T04:17:38;10.80;99.90
13982;DHT22;7065;50.880;5.502;2022-11-15T04:20:06;10.80;99.90
13982;DHT22;7065;50.880;5.502;2022-11-15T04:22:58;10.80;99.90
13982;DHT22;7065;50.880;5.502;2022-11-15T04:25:43;10.80;99.90
13982;DHT22;7065;50.880;5.502;2022-11-15T04:28:10;10.80;99.90
13982;DHT22;7065;50.880;5.502;2022-11-15T04:30:35;10.80;99.90
13982;DHT22;7065;50.880;5.502;2022-11-15T04:33:01;10.80;99.90
13982;DHT22;7065;50.880;5.502;2022-11-15T04:35:27;10.80;99.90
13982;DHT22;7065;50.880;5.502;2022-11-15T04:37:53;10.80;99.90
13982;DHT22;7065;50.880;5.502;2022-11-15T04:40:22;10.80;99.90
13982;DHT22;7065;50.880;5.502;2022-11-15T04:42:48;10.90;99.90
13982;DHT22;7065;50.880;5.502;2022-11-15T04:45:14;11.00;99.90
13982;DHT22;7065;50.880;5.502;2022-11-15T04:47:43;11.00;99.90
13982;DHT22;7065;50.880;5.502;2022-11-15T04:50:09;11.00;99.90
13982;DHT22;7065;50.880;5.502;2022-11-15T04:52:41;11.00;99.90
13982;DHT22;7065;50.880;5.502;2022-11-15T04:55:08;11.00;99.90
13982;DHT22;7065;50.880;5.502;2022-11-15T04:57:34;11.00;99.90
13982;DHT22;7065;50.880;5.502;2022-11-15T05:00:00;11.00;99.90
13982;DHT22;7065;50.880;5.502;2022-11-15T05:02:26;11.00;99.90
13982;DHT22;7065;50.880;5.502;2022-11-15T05:05:12;11.00;99.90
13982;DHT22;7065;50.880;5.502;2022-11-15T05:07:37;11.00;99.90
13982;DHT22;7065;50.880;5.502;2022-11-15T05:10:03;11.00;99.90
13982;DHT22;7065;50.880;5.502;2022-11-15T05:12:29;11.00;99.90
13982;DHT22;7065;50.880;5.502;2022-11-15T05:14:55;11.10;99.90
13982;DHT22;7065;50.880;5.502;2022-11-15T05:17:20;11.00;99.90
13982;DHT22;7065;50.880;5.502;2022-11-15T05:19:46;10.80;99.90
13982;DHT22;7065;50.880;5.502;2022-11-15T05:22:11;10.70;99.90
13982;DHT22;7065;50.880;5.502;2022-11-15T05:24:37;10.60;99.90
13982;DHT22;7065;50.880;5.502;2022-11-15T05:27:03;10.50;99.90
13982;DHT22;7065;50.880;5.502;2022-11-15T05:29:29;10.40;99.90
13982;DHT22;7065;50.880;5.502;2022-11-15T05:31:55;10.40;99.90
13982;DHT22;7065;50.880;5.502;2022-11-15T05:34:20;10.30;99.90
13982;DHT22;7065;50.880;5.502;2022-11-15T05:36:48;10.20;99.90
13982;DHT22;7065;50.880;5.502;2022-11-15T05:39:14;10.20;99.90
13982;DHT22;7065;50.880;5.502;2022-11-15T05:41:47;10.20;99.90
13982;DHT22;7065;50.880;5.502;2022-11-15T05:44:17;10.10;99.90
13982;DHT22;7065;50.880;5.502;2022-11-15T05:46:44;10.10;99.90
13982;DHT22;7065;50.880;5.502;2022-11-15T05:49:13;10.10;99.90
13982;DHT22;7065;50.880;5.502;2022-11-15T05:51:41;10.10;99.90
13982;DHT22;7065;50.880;5.502;2022-11-15T05:54:07;10.10;99.90
13982;DHT22;7065;50.880;5.502;2022-11-15T05:56:33;10.10;99.90
13982;DHT22;7065;50.880;5.502;2022-11-15T05:58:59;10.00;99.90
13982;DHT22;7065;50.880;5.502;2022-11-15T06:01:25;10.00;99.90
13982;DHT22;7065;50.880;5.502;2022-11-15T06:03:51;10.00;99.90
13982;DHT22;7065;50.880;5.502;2022-11-15T06:06:18;10.00;99.90
13982;DHT22;7065;50.880;5.502;2022-11-15T06:08:43;10.00;99.90
13982;DHT22;7065;50.880;5.502;2022-11-15T06:11:09;10.00;99.90
13982;DHT22;7065;50.880;5.502;2022-11-15T06:13:35;10.00;99.90
13982;DHT22;7065;50.880;5.502;2022-11-15T06:16:00;10.00;99.90
13982;DHT22;7065;50.880;5.502;2022-11-15T06:18:26;10.00;99.90
13982;DHT22;7065;50.880;5.502;2022-11-15T06:20:52;10.00;99.90
13982;DHT22;7065;50.880;5.502;2022-11-15T06:23:18;10.00;99.90
13982;DHT22;7065;50.880;5.502;2022-11-15T06:25:44;9.90;99.90
13982;DHT22;7065;50.880;5.502;2022-11-15T06:28:09;9.90;99.90
13982;DHT22;7065;50.880;5.502;2022-11-15T06:30:35;9.90;99.90
13982;DHT22;7065;50.880;5.502;2022-11-15T06:33:02;9.90;99.90
13982;DHT22;7065;50.880;5.502;2022-11-15T06:35:29;9.90;99.90
13982;DHT22;7065;50.880;5.502;2022-11-15T06:37:55;9.80;99.90
13982;DHT22;7065;50.880;5.502;2022-11-15T06:40:21;9.80;99.90
13982;DHT22;7065;50.880;5.502;2022-11-15T06:42:46;9.80;99.90
13982;DHT22;7065;50.880;5.502;2022-11-15T06:45:12;9.70;99.90
13982;DHT22;7065;50.880;5.502;2022-11-15T06:47:46;9.70;99.90
13982;DHT22;7065;50.880;5.502;2022-11-15T06:50:12;9.70;99.90
13982;DHT22;7065;50.880;5.502;2022-11-15T06:52:37;9.60;99.90
13982;DHT22;7065;50.880;5.502;2022-11-15T06:55:03;9.60;99.90
13982;DHT22;7065;50.880;5.502;2022-11-15T06:57:29;9.60;99.90
13982;DHT22;7065;50.880;5.502;2022-11-15T06:59:54;9.60;99.90
13982;DHT22;7065;50.880;5.502;2022-11-15T07:02:20;9.60;99.90
13982;DHT22;7065;50.880;5.502;2022-11-15T07:04:46;9.60;99.90
13982;DHT22;7065;50.880;5.502;2022-11-15T07:07:12;9.60;99.90
13982;DHT22;7065;50.880;5.502;2022-11-15T07:09:38;9.60;99.90
13982;DHT22;7065;50.880;5.502;2022-11-15T07:12:03;9.60;99.90
13982;DHT22;7065;50.880;5.502;2022-11-15T07:14:29;9.70;99.90
13982;DHT22;7065;50.880;5.502;2022-11-15T07:16:55;9.70;99.90
13982;DHT22;7065;50.880;5.502;2022-11-15T07:19:20;9.70;99.90
13982;DHT22;7065;50.880;5.502;2022-11-15T07:21:46;9.80;99.90
13982;DHT22;7065;50.880;5.502;2022-11-15T07:24:12;9.70;99.90
13982;DHT22;7065;50.880;5.502;2022-11-15T07:26:38;9.80;99.90
13982;DHT22;7065;50.880;5.502;2022-11-15T07:29:03;9.90;99.90
13982;DHT22;7065;50.880;5.502;2022-11-15T07:31:29;9.90;99.90
13982;DHT22;7065;50.880;5.502;2022-11-15T07:33:54;9.90;99.90
13982;DHT22;7065;50.880;5.502;2022-11-15T07:36:20;9.90;99.90
13982;DHT22;7065;50.880;5.502;2022-11-15T07:38:46;9.90;99.90
13982;DHT22;7065;50.880;5.502;2022-11-15T07:41:11;9.80;99.90
13982;DHT22;7065;50.880;5.502;2022-11-15T07:43:38;9.80;99.90
13982;DHT22;7065;50.880;5.502;2022-11-15T07:46:08;9.80;99.90
13982;DHT22;7065;50.880;5.502;2022-11-15T07:48:37;9.70;99.90
13982;DHT22;7065;50.880;5.502;2022-11-15T07:51:06;9.70;99.90
13982;DHT22;7065;50.880;5.502;2022-11-15T07:53:31;9.70;99.90
13982;DHT22;7065;50.880;5.502;2022-11-15T07:55:57;9.70;99.90
13982;DHT22;7065;50.880;5.502;2022-11-15T07:58:23;9.70;99.90
13982;DHT22;7065;50.880;5.502;2022-11-15T08:00:48;9.70;99.90
13982;DHT22;7065;50.880;5.502;2022-11-15T08:03:15;9.70;99.90
13982;DHT22;7065;50.880;5.502;2022-11-15T08:05:43;9.70;99.90
13982;DHT22;7065;50.880;5.502;2022-11-15T08:08:15;9.70;99.90
13982;DHT22;7065;50.880;5.502;2022-11-15T08:10:41;9.70;99.90
13982;DHT22;7065;50.880;5.502;2022-11-15T08:13:08;9.70;99.90
13982;DHT22;7065;50.880;5.502;2022-11-15T08:15:35;9.70;99.90
13982;DHT22;7065;50.880;5.502;2022-11-15T08:18:03;9.60;99.90
13982;DHT22;7065;50.880;5.502;2022-11-15T08:20:30;9.60;99.90
13982;DHT22;7065;50.880;5.502;2022-11-15T08:23:00;9.60;99.90
13982;DHT22;7065;50.880;5.502;2022-11-15T08:25:28;9.60;99.90
13982;DHT22;7065;50.880;5.502;2022-11-15T08:27:55;9.60;99.90
13982;DHT22;7065;50.880;5.502;2022-11-15T08:30:22;9.60;99.90
13982;DHT22;7065;50.880;5.502;2022-11-15T08:32:48;9.60;99.90
13982;DHT22;7065;50.880;5.502;2022-11-15T08:35:14;9.60;99.90
13982;DHT22;7065;50.880;5.502;2022-11-15T08:37:40;9.60;99.90
13982;DHT22;7065;50.880;5.502;2022-11-15T08:40:06;9.60;99.90
13982;DHT22;7065;50.880;5.502;2022-11-15T08:42:32;9.60;99.90
13982;DHT22;7065;50.880;5.502;2022-11-15T08:44:58;9.60;99.90
13982;DHT22;7065;50.880;5.502;2022-11-15T08:47:25;9.60;99.90
13982;DHT22;7065;50.880;5.502;2022-11-15T08:49:51;9.60;99.90
13982;DHT22;7065;50.880;5.502;2022-11-15T08:52:17;9.60;99.90
13982;DHT22;7065;50.880;5.502;2022-11-15T08:54:43;9.60;99.90
13982;DHT22;7065;50.880;5.502;2022-11-15T08:57:08;9.60;99.90
13982;DHT22;7065;50.880;5.502;2022-11-15T08:59:35;9.70;99.90
13982;DHT22;7065;50.880;5.502;2022-11-15T09:02:02;9.70;99.90
13982;DHT22;7065;50.880;5.502;2022-11-15T09:04:28;9.70;99.90
13982;DHT22;7065;50.880;5.502;2022-11-15T09:06:54;9.70;99.90
13982;DHT22;7065;50.880;5.502;2022-11-15T09:09:20;9.70;99.90
13982;DHT22;7065;50.880;5.502;2022-11-15T09:11:46;9.80;99.90
13982;DHT22;7065;50.880;5.502;2022-11-15T09:14:12;9.80;99.90
13982;DHT22;7065;50.880;5.502;2022-11-15T09:16:38;9.80;99.90
13982;DHT22;7065;50.880;5.502;2022-11-15T09:19:04;9.90;99.90
13982;DHT22;7065;50.880;5.502;2022-11-15T09:21:30;9.90;99.90
13982;DHT22;7065;50.880;5.502;2022-11-15T09:23:56;9.90;99.90
13982;DHT22;7065;50.880;5.502;2022-11-15T09:26:22;9.90;99.90
13982;DHT22;7065;50.880;5.502;2022-11-15T09:28:48;10.00;99.90
13982;DHT22;7065;50.880;5.502;2022-11-15T09:31:14;10.00;99.90
13982;DHT22;7065;50.880;5.502;2022-11-15T09:33:40;10.00;99.90
13982;DHT22;7065;50.880;5.502;2022-11-15T09:36:09;10.00;99.90
13982;DHT22;7065;50.880;5.502;2022-11-15T09:38:35;10.00;99.90
13982;DHT22;7065;50.880;5.502;2022-11-15T09:43:52;10.10;99.90
13982;DHT22;7065;50.880;5.502;2022-11-15T09:49:16;10.20;99.90
13982;DHT22;7065;50.880;5.502;2022-11-15T09:51:50;10.20;99.90
13982;DHT22;7065;50.880;5.502;2022-11-15T09:54:41;10.20;99.90
13982;DHT22;7065;50.880;5.502;2022-11-15T10:04:40;10.50;99.90
13982;DHT22;7065;50.880;5.502;2022-11-15T10:07:27;10.70;99.90
13982;DHT22;7065;50.880;5.502;2022-11-15T10:10:21;10.70;99.90
13982;DHT22;7065;50.880;5.502;2022-11-15T10:12:50;10.80;99.90
13982;DHT22;7065;50.880;5.502;2022-11-15T10:15:18;10.90;99.90
13982;DHT22;7065;50.880;5.502;2022-11-15T10:18:19;11.00;99.90
13982;DHT22;7065;50.880;5.502;2022-11-15T10:20:52;11.00;99.90
13982;DHT22;7065;50.880;5.502;2022-11-15T10:23:21;11.00;99.90
13982;DHT22;7065;50.880;5.502;2022-11-15T10:25:51;11.00;99.90
13982;DHT22;7065;50.880;5.502;2022-11-15T10:28:22;11.00;99.90
13982;DHT22;7065;50.880;5.502;2022-11-15T10:30:50;11.00;99.90
13982;DHT22;7065;50.880;5.502;2022-11-15T10:46:28;11.10;99.90
13982;DHT22;7065;50.880;5.502;2022-11-15T10:51:46;11.20;99.90
13982;DHT22;7065;50.880;5.502;2022-11-15T10:54:21;11.20;99.90
13982;DHT22;7065;50.880;5.502;2022-11-15T10:56:54;11.30;99.90
13982;DHT22;7065;50.880;5.502;2022-11-15T10:59:27;11.30;99.90
13982;DHT22;7065;50.880;5.502;2022-11-15T11:01:53;11.40;99.90
13982;DHT22;7065;50.880;5.502;2022-11-15T11:04:20;11.40;99.90
13982;DHT22;7065;50.880;5.502;2022-11-15T11:06:51;11.40;99.90
13982;DHT22;7065;50.880;5.502;2022-11-15T11:09:33;11.40;99.90
13982;DHT22;7065;50.880;5.502;2022-11-15T11:12:00;11.50;99.90
13982;DHT22;7065;50.880;5.502;2022-11-15T11:14:33;11.60;99.90
13982;DHT22;7065;50.880;5.502;2022-11-15T11:20:02;11.70;99.90
13982;DHT22;7065;50.880;5.502;2022-11-15T11:25:25;11.90;99.90
13982;DHT22;7065;50.880;5.502;2022-11-15T11:33:40;12.10;99.90
13982;DHT22;7065;50.880;5.502;2022-11-15T11:41:58;12.20;99.90
13982;DHT22;7065;50.880;5.502;2022-11-15T11:47:23;12.20;99.90
13982;DHT22;7065;50.880;5.502;2022-11-15T11:49:55;12.30;99.90
13982;DHT22;7065;50.880;5.502;2022-11-15T11:52:43;12.30;99.90
13982;DHT22;7065;50.880;5.502;2022-11-15T12:00:47;12.40;99.90
13982;DHT22;7065;50.880;5.502;2022-11-15T12:06:31;12.30;99.90
13982;DHT22;7065;50.880;5.502;2022-11-15T12:09:17;12.30;99.90
13982;DHT22;7065;50.880;5.502;2022-11-15T12:14:53;12.30;99.90
13982;DHT22;7065;50.880;5.502;2022-11-15T12:17:25;12.40;99.90
13982;DHT22;7065;50.880;5.502;2022-11-15T12:19:59;12.40;99.90
13982;DHT22;7065;50.880;5.502;2022-11-15T12:22:43;12.50;99.90
13982;DHT22;7065;50.880;5.502;2022-11-15T12:25:25;12.50;99.90
13982;DHT22;7065;50.880;5.502;2022-11-15T12:28:28;12.50;99.90
13982;DHT22;7065;50.880;5.502;2022-11-15T12:31:14;12.60;99.90
13982;DHT22;7065;50.880;5.502;2022-11-15T12:33:46;12.70;99.90
13982;DHT22;7065;50.880;5.502;2022-11-15T12:36:37;12.70;99.90
13982;DHT22;7065;50.880;5.502;2022-11-15T12:39:06;12.70;99.90
13982;DHT22;7065;50.880;5.502;2022-11-15T12:41:40;12.70;99.90
13982;DHT22;7065;50.880;5.502;2022-11-15T12:59:54;13.00;99.90
13982;DHT22;7065;50.880;5.502;2022-11-15T13:12:58;13.20;99.90
13982;DHT22;7065;50.880;5.502;2022-11-15T13:15:45;13.20;99.90
13982;DHT22;7065;50.880;5.502;2022-11-15T13:18:31;13.20;99.90
13982;DHT22;7065;50.880;5.502;2022-11-15T13:20:58;13.20;99.90
13982;DHT22;7065;50.880;5.502;2022-11-15T13:23:24;13.20;99.90
13982;DHT22;7065;50.880;5.502;2022-11-15T13:26:13;13.20;99.90
13982;DHT22;7065;50.880;5.502;2022-11-15T13:28:45;13.20;99.90
13982;DHT22;7065;50.880;5.502;2022-11-15T13:33:54;13.20;99.90
13982;DHT22;7065;50.880;5.502;2022-11-15T13:36:21;13.20;99.90
13982;DHT22;7065;50.880;5.502;2022-11-15T13:39:03;13.20;99.90
13982;DHT22;7065;50.880;5.502;2022-11-15T13:41:32;13.30;99.90
13982;DHT22;7065;50.880;5.502;2022-11-15T13:44:00;13.30;99.90
13982;DHT22;7065;50.880;5.502;2022-11-15T13:46:31;13.40;99.90
13982;DHT22;7065;50.880;5.502;2022-11-15T13:49:03;13.40;99.90
13982;DHT22;7065;50.880;5.502;2022-11-15T13:51:50;13.50;99.90
13982;DHT22;7065;50.880;5.502;2022-11-15T13:56:54;13.60;99.90
13982;DHT22;7065;50.880;5.502;2022-11-15T13:59:29;13.60;99.90
13982;DHT22;7065;50.880;5.502;2022-11-15T14:01:57;13.60;99.90
13982;DHT22;7065;50.880;5.502;2022-11-15T14:04:25;13.50;99.90
13982;DHT22;7065;50.880;5.502;2022-11-15T14:06:58;13.50;99.90
13982;DHT22;7065;50.880;5.502;2022-11-15T14:09:38;13.50;99.90
13982;DHT22;7065;50.880;5.502;2022-11-15T14:14:50;13.40;99.90
13982;DHT22;7065;50.880;5.502;2022-11-15T14:19:54;13.30;99.90
13982;DHT22;7065;50.880;5.502;2022-11-15T14:22:27;13.30;99.90
13982;DHT22;7065;50.880;5.502;2022-11-15T14:27:38;13.20;99.90
13982;DHT22;7065;50.880;5.502;2022-11-15T14:30:05;13.10;99.90
13982;DHT22;7065;50.880;5.502;2022-11-15T14:32:46;13.10;99.90
13982;DHT22;7065;50.880;5.502;2022-11-15T14:35:18;13.00;99.90
13982;DHT22;7065;50.880;5.502;2022-11-15T14:37:44;13.00;99.90
13982;DHT22;7065;50.880;5.502;2022-11-15T14:40:13;13.00;99.90
13982;DHT22;7065;50.880;5.502;2022-11-15T14:42:40;13.00;99.90
13982;DHT22;7065;50.880;5.502;2022-11-15T14:45:17;12.90;99.90
13982;DHT22;7065;50.880;5.502;2022-11-15T14:47:44;12.90;99.90
13982;DHT22;7065;50.880;5.502;2022-11-15T14:50:18;12.90;99.90
13982;DHT22;7065;50.880;5.502;2022-11-15T14:52:45;12.80;99.90
13982;DHT22;7065;50.880;5.502;2022-11-15T14:55:28;12.90;99.90
13982;DHT22;7065;50.880;5.502;2022-11-15T14:57:56;12.80;99.90
13982;DHT22;7065;50.880;5.502;2022-11-15T15:00:22;12.80;99.90
13982;DHT22;7065;50.880;5.502;2022-11-15T15:02:48;12.80;99.90
13982;DHT22;7065;50.880;5.502;2022-11-15T15:05:21;12.80;99.90
13982;DHT22;7065;50.880;5.502;2022-11-15T15:07:47;12.80;99.90
13982;DHT22;7065;50.880;5.502;2022-11-15T15:10:14;12.80;99.90
13982;DHT22;7065;50.880;5.502;2022-11-15T15:12:40;12.80;99.90
13982;DHT22;7065;50.880;5.502;2022-11-15T15:15:11;12.80;99.90
13982;DHT22;7065;50.880;5.502;2022-11-15T15:17:38;12.80;99.90
13982;DHT22;7065;50.880;5.502;2022-11-15T15:20:04;12.70;99.90
13982;DHT22;7065;50.880;5.502;2022-11-15T15:22:30;12.70;99.90
13982;DHT22;7065;50.880;5.502;2022-11-15T15:24:56;12.70;99.90
13982;DHT22;7065;50.880;5.502;2022-11-15T15:27:22;12.70;99.90
13982;DHT22;7065;50.880;5.502;2022-11-15T15:29:48;12.70;99.90
13982;DHT22;7065;50.880;5.502;2022-11-15T15:32:14;12.70;99.90
13982;DHT22;7065;50.880;5.502;2022-11-15T15:34:40;12.70;99.90
13982;DHT22;7065;50.880;5.502;2022-11-15T15:39:48;12.70;99.90
13982;DHT22;7065;50.880;5.502;2022-11-15T15:42:15;12.70;99.90
13982;DHT22;7065;50.880;5.502;2022-11-15T15:44:41;12.60;99.90
13982;DHT22;7065;50.880;5.502;2022-11-15T15:47:18;12.60;99.90
13982;DHT22;7065;50.880;5.502;2022-11-15T15:49:44;12.60;99.90
13982;DHT22;7065;50.880;5.502;2022-11-15T15:52:10;12.50;99.90
13982;DHT22;7065;50.880;5.502;2022-11-15T15:54:37;12.50;99.90
13982;DHT22;7065;50.880;5.502;2022-11-15T15:57:03;12.40;99.90
13982;DHT22;7065;50.880;5.502;2022-11-15T15:59:30;12.40;99.90
13982;DHT22;7065;50.880;5.502;2022-11-15T16:01:55;12.30;99.90
13982;DHT22;7065;50.880;5.502;2022-11-15T16:04:21;12.30;99.90
13982;DHT22;7065;50.880;5.502;2022-11-15T16:06:48;12.20;99.90
13982;DHT22;7065;50.880;5.502;2022-11-15T16:09:17;12.20;99.90
13982;DHT22;7065;50.880;5.502;2022-11-15T16:11:46;12.10;99.90
13982;DHT22;7065;50.880;5.502;2022-11-15T16:14:12;12.10;99.90
13982;DHT22;7065;50.880;5.502;2022-11-15T16:16:38;12.10;99.90
13982;DHT22;7065;50.880;5.502;2022-11-15T16:19:04;12.00;99.90
13982;DHT22;7065;50.880;5.502;2022-11-15T16:21:30;12.00;99.90
13982;DHT22;7065;50.880;5.502;2022-11-15T16:23:57;11.90;99.90
13982;DHT22;7065;50.880;5.502;2022-11-15T16:26:27;11.90;99.90
13982;DHT22;7065;50.880;5.502;2022-11-15T16:28:54;11.80;99.90
13982;DHT22;7065;50.880;5.502;2022-11-15T16:31:20;11.80;99.90
13982;DHT22;7065;50.880;5.502;2022-11-15T16:33:49;11.80;99.90
13982;DHT22;7065;50.880;5.502;2022-11-15T16:36:25;11.80;99.90
13982;DHT22;7065;50.880;5.502;2022-11-15T16:38:51;11.80;99.90
13982;DHT22;7065;50.880;5.502;2022-11-15T16:41:18;11.70;99.90
13982;DHT22;7065;50.880;5.502;2022-11-15T16:43:45;11.70;99.90
13982;DHT22;7065;50.880;5.502;2022-11-15T16:46:20;11.70;99.90
13982;DHT22;7065;50.880;5.502;2022-11-15T16:48:47;11.70;99.90
13982;DHT22;7065;50.880;5.502;2022-11-15T16:51:13;11.70;99.90
13982;DHT22;7065;50.880;5.502;2022-11-15T16:53:39;11.70;99.90
13982;DHT22;7065;50.880;5.502;2022-11-15T16:58:39;11.70;99.90
13982;DHT22;7065;50.880;5.502;2022-11-15T17:01:05;11.70;99.90
13982;DHT22;7065;50.880;5.502;2022-11-15T17:03:31;11.70;99.90
13982;DHT22;7065;50.880;5.502;2022-11-15T17:05:57;11.70;99.90
13982;DHT22;7065;50.880;5.502;2022-11-15T17:08:24;11.70;99.90
13982;DHT22;7065;50.880;5.502;2022-11-15T17:10:50;11.70;99.90
13982;DHT22;7065;50.880;5.502;2022-11-15T17:13:15;11.70;99.90
13982;DHT22;7065;50.880;5.502;2022-11-15T17:15:41;11.60;99.90
13982;DHT22;7065;50.880;5.502;2022-11-15T17:18:11;11.60;99.90
13982;DHT22;7065;50.880;5.502;2022-11-15T17:20:38;11.60;99.90
13982;DHT22;7065;50.880;5.502;2022-11-15T17:23:04;11.60;99.90
13982;DHT22;7065;50.880;5.502;2022-11-15T17:25:36;11.70;99.90
13982;DHT22;7065;50.880;5.502;2022-11-15T17:28:02;11.60;99.90
13982;DHT22;7065;50.880;5.502;2022-11-15T17:30:27;11.60;99.90
13982;DHT22;7065;50.880;5.502;2022-11-15T17:32:53;11.70;99.90
13982;DHT22;7065;50.880;5.502;2022-11-15T17:35:19;11.70;99.90
13982;DHT22;7065;50.880;5.502;2022-11-15T17:37:45;11.70;99.90
13982;DHT22;7065;50.880;5.502;2022-11-15T17:40:12;11.70;99.90
13982;DHT22;7065;50.880;5.502;2022-11-15T17:42:40;11.70;99.90
13982;DHT22;7065;50.880;5.502;2022-11-15T17:45:06;11.70;99.90
13982;DHT22;7065;50.880;5.502;2022-11-15T17:47:32;11.70;99.90
13982;DHT22;7065;50.880;5.502;2022-11-15T17:49:58;11.70;99.90
13982;DHT22;7065;50.880;5.502;2022-11-15T17:52:23;11.70;99.90
13982;DHT22;7065;50.880;5.502;2022-11-15T17:54:49;11.70;99.90
13982;DHT22;7065;50.880;5.502;2022-11-15T17:57:14;11.70;99.90
13982;DHT22;7065;50.880;5.502;2022-11-15T17:59:40;11.70;99.90
13982;DHT22;7065;50.880;5.502;2022-11-15T18:02:07;11.70;99.90
13982;DHT22;7065;50.880;5.502;2022-11-15T18:04:33;11.70;99.90
13982;DHT22;7065;50.880;5.502;2022-11-15T18:06:59;11.70;99.90
13982;DHT22;7065;50.880;5.502;2022-11-15T18:09:24;11.70;99.90
13982;DHT22;7065;50.880;5.502;2022-11-15T18:11:50;11.70;99.90
13982;DHT22;7065;50.880;5.502;2022-11-15T18:14:18;11.70;99.90
13982;DHT22;7065;50.880;5.502;2022-11-15T18:16:43;11.70;99.90